Terminal Aerodrome Forecast
Issued by NWS Springfield, MO

Home | Current Version | Previous Version | Text Only | Print | Product List | Glossary On
Versions: 1 2 3 4 5 6 7 8 9 10 11 12 13 14 15 16 17 18 19 20
021
FTUS43 KSGF 211138
TAFSGF
TAF
KSGF 211138Z 2112/2212 00000KT 2SM BR SCT003
      TEMPO 2112/2114 3/4SM BR VV003
     FM211400 04007KT P6SM SCT090
     FM220000 07007KT P6SM SCT250=

USA.gov is the U.S. government's official web portal to all federal, state and local government web resources and services.